createdAt,value
2023-05-17T00:00:29.653Z,2.07
2023-05-17T00:02:58.547Z,2.10
2023-05-17T00:05:26.207Z,2.00
2023-05-17T00:07:53.700Z,2.00
2023-05-17T00:10:21.200Z,2.00
2023-05-17T00:12:48.660Z,2.07
2023-05-17T00:15:16.239Z,2.13
2023-05-17T00:17:43.717Z,2.27
2023-05-17T00:20:13.240Z,2.13
2023-05-17T00:22:43.175Z,2.20
2023-05-17T00:25:10.624Z,2.13
2023-05-17T00:27:38.109Z,1.90
2023-05-17T00:30:06.175Z,2.33
2023-05-17T00:32:33.643Z,2.30
2023-05-17T00:35:01.142Z,2.10
2023-05-17T00:37:29.986Z,2.47
2023-05-17T00:39:57.449Z,2.13
2023-05-17T00:42:24.945Z,2.20
2023-05-17T00:44:52.354Z,2.33
2023-05-17T00:47:20.267Z,2.20
2023-05-17T00:49:47.940Z,2.30
2023-05-17T00:52:15.461Z,2.37
2023-05-17T00:54:44.544Z,2.20
2023-05-17T00:57:12.146Z,2.10
2023-05-17T00:59:40.320Z,2.50
2023-05-17T01:02:08.712Z,2.13
2023-05-17T01:04:36.886Z,2.50
2023-05-17T01:07:04.493Z,2.10
2023-05-17T01:09:31.974Z,2.30
2023-05-17T01:12:06.430Z,2.30
2023-05-17T01:14:37.958Z,2.10
2023-05-17T01:17:07.770Z,2.20
2023-05-17T01:19:51.004Z,1.90
2023-05-17T01:22:21.998Z,2.10
2023-05-17T01:24:53.855Z,2.10
2023-05-17T01:27:22.873Z,1.70
2023-05-17T01:29:50.635Z,1.80
2023-05-17T01:32:18.788Z,1.70
2023-05-17T01:34:46.193Z,1.90
2023-05-17T01:37:13.600Z,1.83
2023-05-17T01:39:41.353Z,1.80
2023-05-17T01:42:14.645Z,1.80
2023-05-17T01:44:46.592Z,1.60
2023-05-17T01:47:15.901Z,1.70
2023-05-17T01:49:47.866Z,2.00
2023-05-17T01:52:19.654Z,2.87
2023-05-17T01:54:48.585Z,2.20
2023-05-17T01:57:16.291Z,3.03
2023-05-17T01:59:46.181Z,2.47
2023-05-17T02:02:13.940Z,2.67
2023-05-17T02:04:41.454Z,2.40
2023-05-17T02:07:08.941Z,2.37
2023-05-17T02:09:36.746Z,2.10
2023-05-17T02:12:04.315Z,2.10
2023-05-17T02:14:31.793Z,2.20
2023-05-17T02:17:00.593Z,1.87
2023-05-17T02:19:28.073Z,2.10
2023-05-17T02:21:55.562Z,1.70
2023-05-17T02:24:23.053Z,1.70
2023-05-17T02:26:50.534Z,1.70
2023-05-17T02:29:17.993Z,1.80
2023-05-17T02:31:46.081Z,1.80
2023-05-17T02:34:14.852Z,1.50
2023-05-17T02:36:44.318Z,1.70
2023-05-17T02:39:13.532Z,1.97
2023-05-17T02:41:41.102Z,1.83
2023-05-17T02:44:08.531Z,1.70
2023-05-17T02:46:38.207Z,1.80
2023-05-17T02:49:05.999Z,1.70
2023-05-17T02:51:34.760Z,1.83
2023-05-17T02:54:02.326Z,1.60
2023-05-17T02:56:29.892Z,1.70
2023-05-17T02:58:57.886Z,1.73
2023-05-17T03:01:25.398Z,1.53
2023-05-17T03:03:53.512Z,1.27
2023-05-17T03:06:21.203Z,1.60
2023-05-17T03:08:51.191Z,1.30
2023-05-17T03:11:18.667Z,1.50
2023-05-17T03:13:51.401Z,1.50
2023-05-17T03:16:21.680Z,1.50
2023-05-17T03:18:50.567Z,1.67
2023-05-17T03:21:18.123Z,1.40
2023-05-17T03:23:45.686Z,1.30
2023-05-17T03:26:14.702Z,1.30
2023-05-17T03:28:47.388Z,1.60
2023-05-17T03:31:15.854Z,1.70
2023-05-17T03:33:43.456Z,1.50
2023-05-17T03:36:11.023Z,1.60
2023-05-17T03:38:38.500Z,1.50
2023-05-17T03:41:06.056Z,1.40
2023-05-17T03:43:34.848Z,1.50
2023-05-17T03:46:02.749Z,1.43
2023-05-17T03:48:31.407Z,1.67
2023-05-17T03:51:00.666Z,1.43
2023-05-17T03:53:28.298Z,1.47
2023-05-17T03:55:56.033Z,1.60
2023-05-17T03:58:23.995Z,1.30
2023-05-17T04:00:52.815Z,1.33
2023-05-17T04:03:21.376Z,1.47
2023-05-17T04:05:48.907Z,1.50
2023-05-17T04:08:16.392Z,2.00
2023-05-17T04:10:44.683Z,1.47
2023-05-17T04:13:12.124Z,1.47
2023-05-17T04:15:39.815Z,1.47
2023-05-17T04:18:09.938Z,1.40
2023-05-17T04:20:37.529Z,1.30
2023-05-17T04:23:05.022Z,1.30
2023-05-17T04:25:35.193Z,1.40
2023-05-17T04:28:03.550Z,1.43
2023-05-17T04:30:31.116Z,1.40
2023-05-17T04:32:58.761Z,1.70
2023-05-17T04:35:27.979Z,1.37
2023-05-17T04:37:55.960Z,1.63
2023-05-17T04:40:23.454Z,1.30
2023-05-17T04:42:52.084Z,1.60
2023-05-17T04:45:20.438Z,1.50
2023-05-17T04:47:50.397Z,1.50
2023-05-17T04:50:18.061Z,1.57
2023-05-17T04:52:47.739Z,1.40
2023-05-17T04:55:15.383Z,1.30
2023-05-17T04:57:43.993Z,1.50
2023-05-17T05:00:15.352Z,2.03
2023-05-17T05:02:46.509Z,1.33
2023-05-17T05:05:14.360Z,1.53
2023-05-17T05:07:43.513Z,1.40
2023-05-17T05:10:12.689Z,1.30
2023-05-17T05:12:40.516Z,1.50
2023-05-17T05:15:08.602Z,1.30
2023-05-17T05:17:37.954Z,1.60
2023-05-17T05:20:06.367Z,1.50
2023-05-17T05:22:33.843Z,1.70
2023-05-17T05:25:02.274Z,1.80
2023-05-17T05:27:31.063Z,1.87
2023-05-17T05:29:58.458Z,1.60
2023-05-17T05:32:26.028Z,1.63
2023-05-17T05:34:54.298Z,2.10
2023-05-17T05:37:21.825Z,1.50
2023-05-17T05:39:49.352Z,1.50
2023-05-17T05:42:17.016Z,1.47
2023-05-17T05:44:45.825Z,1.77
2023-05-17T05:47:13.357Z,1.53
2023-05-17T05:49:43.582Z,1.53
2023-05-17T05:52:11.008Z,1.70
2023-05-17T05:54:38.555Z,1.80
2023-05-17T05:57:06.696Z,1.43
2023-05-17T05:59:34.128Z,1.60
2023-05-17T06:02:03.012Z,1.67
2023-05-17T06:04:43.839Z,1.53
2023-05-17T06:07:13.120Z,1.63
2023-05-17T06:09:40.601Z,1.53
2023-05-17T06:12:08.172Z,1.40
2023-05-17T06:14:37.300Z,1.70
2023-05-17T06:17:06.624Z,1.50
2023-05-17T06:19:34.123Z,1.50
2023-05-17T06:22:01.643Z,1.80
2023-05-17T06:24:29.034Z,1.50
2023-05-17T06:26:56.430Z,1.60
2023-05-17T06:29:24.090Z,1.60
2023-05-17T06:31:51.491Z,1.53
2023-05-17T06:34:20.319Z,1.73
2023-05-17T06:36:47.779Z,1.60
2023-05-17T06:39:17.255Z,1.63
2023-05-17T06:41:44.750Z,1.60
2023-05-17T06:44:14.632Z,1.70
2023-05-17T06:46:42.186Z,2.03
2023-05-17T06:49:09.651Z,1.40
2023-05-17T06:51:38.450Z,1.77
2023-05-17T06:54:06.161Z,1.77
2023-05-17T06:56:33.757Z,1.70
2023-05-17T06:59:01.500Z,1.60
2023-05-17T07:01:28.971Z,1.70
2023-05-17T07:03:56.705Z,1.50
2023-05-17T07:06:24.235Z,1.60
2023-05-17T07:08:53.058Z,1.70
2023-05-17T07:11:20.646Z,1.80
2023-05-17T07:13:50.303Z,1.77
2023-05-17T07:16:18.576Z,1.57
2023-05-17T07:18:46.106Z,1.70
2023-05-17T07:21:13.558Z,1.60
2023-05-17T07:23:41.048Z,1.40
2023-05-17T07:26:09.841Z,1.40
2023-05-17T07:28:37.277Z,1.50
2023-05-17T07:31:04.704Z,1.67
2023-05-17T07:33:32.143Z,1.60
2023-05-17T07:35:59.685Z,1.40
2023-05-17T07:38:27.288Z,1.63
2023-05-17T07:40:56.968Z,1.57
2023-05-17T07:43:25.711Z,1.50
2023-05-17T07:45:53.139Z,1.73
2023-05-17T07:48:20.846Z,1.67
2023-05-17T07:50:51.532Z,1.83
2023-05-17T07:53:19.025Z,1.57
2023-05-17T07:55:49.201Z,1.60
2023-05-17T07:58:16.639Z,1.30
2023-05-17T08:00:45.700Z,1.57
2023-05-17T08:03:15.658Z,1.53
2023-05-17T08:05:44.610Z,1.70
2023-05-17T08:08:12.063Z,1.30
2023-05-17T08:10:39.669Z,1.50
2023-05-17T08:13:09.013Z,1.30
2023-05-17T08:15:36.388Z,1.30
2023-05-17T08:18:06.176Z,1.40
2023-05-17T08:20:33.793Z,1.40
2023-05-17T08:23:02.780Z,1.40
2023-05-17T08:25:30.893Z,1.67
2023-05-17T08:27:58.494Z,1.40
2023-05-17T08:30:29.250Z,1.60
2023-05-17T08:32:57.319Z,1.27
2023-05-17T08:35:28.888Z,1.50
2023-05-17T08:37:56.558Z,1.47
2023-05-17T08:40:24.173Z,1.50
2023-05-17T08:42:51.860Z,1.50
2023-05-17T08:45:19.741Z,1.33
2023-05-17T08:47:47.203Z,1.20
2023-05-17T08:50:14.673Z,1.37
2023-05-17T08:52:46.256Z,1.40
2023-05-17T08:55:16.258Z,1.50
2023-05-17T08:57:44.300Z,1.43
2023-05-17T09:00:14.397Z,1.50
2023-05-17T09:02:42.713Z,1.33
2023-05-17T09:05:10.977Z,1.33
2023-05-17T09:07:38.600Z,1.80
2023-05-17T09:10:08.085Z,1.30
2023-05-17T09:12:35.582Z,1.53
2023-05-17T09:15:23.462Z,1.70
2023-05-17T09:17:54.420Z,1.90
2023-05-17T09:20:25.559Z,1.40
2023-05-17T09:22:53.008Z,1.73
2023-05-17T09:25:22.175Z,1.50
2023-05-17T09:27:49.584Z,2.17
2023-05-17T09:30:17.094Z,1.60
2023-05-17T09:32:45.132Z,1.73
2023-05-17T09:35:12.980Z,1.90
2023-05-17T09:37:40.539Z,1.33
2023-05-17T09:40:08.786Z,1.47
2023-05-17T09:42:39.135Z,1.30
2023-05-17T09:45:06.961Z,1.50
2023-05-17T09:47:35.247Z,1.80
2023-05-17T09:50:04.811Z,1.60
2023-05-17T09:52:32.539Z,1.50
2023-05-17T09:55:00.620Z,1.67
2023-05-17T09:57:30.136Z,1.80
2023-05-17T09:59:59.318Z,1.80
2023-05-17T10:02:28.286Z,1.67
2023-05-17T10:04:57.524Z,1.73
2023-05-17T10:07:25.858Z,1.60
2023-05-17T10:09:54.581Z,1.70
2023-05-17T10:12:25.010Z,1.70
2023-05-17T10:14:55.726Z,1.50
2023-05-17T10:17:25.094Z,2.23
2023-05-17T10:19:53.585Z,1.50
2023-05-17T10:22:23.601Z,1.50
2023-05-17T10:24:52.136Z,1.30
2023-05-17T10:27:19.875Z,1.33
2023-05-17T10:29:50.258Z,1.70
2023-05-17T10:32:21.484Z,1.40
2023-05-17T10:35:01.512Z,1.50
2023-05-17T10:37:37.631Z,1.30
2023-05-17T10:40:05.522Z,1.20
2023-05-17T10:42:33.134Z,1.43
2023-05-17T10:45:01.695Z,1.43
2023-05-17T10:47:32.872Z,1.27
2023-05-17T10:50:03.219Z,1.73
2023-05-17T10:52:31.354Z,2.37
2023-05-17T10:55:00.475Z,1.73
2023-05-17T10:57:49.181Z,1.20
2023-05-17T11:00:20.696Z,1.33
2023-05-17T11:02:48.678Z,1.33
2023-05-17T11:05:25.600Z,1.30
2023-05-17T11:07:53.176Z,1.30
2023-05-17T11:10:20.592Z,1.37
2023-05-17T11:12:53.955Z,1.33
2023-05-17T11:15:24.662Z,1.40
2023-05-17T11:17:53.906Z,1.40
2023-05-17T11:20:33.192Z,1.60
2023-05-17T11:23:02.484Z,1.53
2023-05-17T11:25:30.467Z,1.47
2023-05-17T11:27:59.129Z,1.50
2023-05-17T11:30:28.699Z,1.30
2023-05-17T11:32:59.746Z,1.37
2023-05-17T11:35:28.155Z,1.50
2023-05-17T11:38:13.628Z,1.40
2023-05-17T11:40:41.181Z,1.30
2023-05-17T11:43:15.313Z,1.67
2023-05-17T11:45:47.406Z,1.33
2023-05-17T11:48:15.713Z,1.40
2023-05-17T11:50:43.986Z,1.47
2023-05-17T11:53:13.500Z,1.57
2023-05-17T11:55:41.499Z,1.40
2023-05-17T11:58:10.140Z,1.40
2023-05-17T12:00:38.704Z,1.40
2023-05-17T12:03:19.260Z,1.50
2023-05-17T12:05:47.471Z,1.50
2023-05-17T12:08:17.876Z,1.40
2023-05-17T12:10:46.494Z,1.30
2023-05-17T12:13:13.996Z,1.30
2023-05-17T12:15:42.154Z,1.63
2023-05-17T12:18:09.671Z,1.30
2023-05-17T12:20:38.908Z,1.40
2023-05-17T12:23:06.341Z,1.50
2023-05-17T12:25:35.116Z,1.47
2023-05-17T12:28:14.782Z,1.80
2023-05-17T12:30:42.234Z,1.47
2023-05-17T12:33:10.339Z,1.30
2023-05-17T12:35:38.137Z,1.40
2023-05-17T12:38:05.735Z,1.73
2023-05-17T12:40:33.201Z,1.40
2023-05-17T12:43:05.063Z,1.40
2023-05-17T12:45:32.748Z,1.47
2023-05-17T12:48:02.095Z,1.23
2023-05-17T12:50:31.308Z,1.40
2023-05-17T12:52:58.988Z,1.50
2023-05-17T12:55:26.591Z,1.40
2023-05-17T12:57:54.386Z,1.50
2023-05-17T13:00:23.332Z,1.67
2023-05-17T13:02:50.836Z,1.60
2023-05-17T13:05:21.341Z,1.40
2023-05-17T13:07:49.083Z,1.30
2023-05-17T13:10:23.285Z,1.40
2023-05-17T13:12:57.435Z,1.40
2023-05-17T13:15:30.516Z,1.37
2023-05-17T13:17:58.200Z,1.60
2023-05-17T13:20:25.813Z,1.20
2023-05-17T13:22:53.634Z,1.27
2023-05-17T13:25:21.338Z,1.70
2023-05-17T13:27:49.500Z,1.53
2023-05-17T13:30:17.170Z,1.50
2023-05-17T13:32:47.352Z,1.40
2023-05-17T13:35:14.963Z,1.40
2023-05-17T13:37:42.393Z,1.40
2023-05-17T13:40:10.123Z,1.37
2023-05-17T13:42:37.714Z,1.77
2023-05-17T13:45:05.920Z,1.47
2023-05-17T13:47:33.481Z,1.73
2023-05-17T13:50:04.480Z,1.40
2023-05-17T13:52:32.028Z,1.47
2023-05-17T13:54:59.442Z,1.83
2023-05-17T13:57:26.893Z,1.60
2023-05-17T13:59:54.327Z,1.50
2023-05-17T14:02:21.777Z,1.53
2023-05-17T14:04:49.247Z,1.53
2023-05-17T14:07:18.061Z,1.40
2023-05-17T14:09:46.647Z,1.60
2023-05-17T14:12:14.088Z,1.50
2023-05-17T14:14:41.529Z,1.60
2023-05-17T14:17:09.048Z,1.40
2023-05-17T14:19:36.736Z,1.30
2023-05-17T14:22:04.346Z,1.50
2023-05-17T14:24:35.058Z,1.30
2023-05-17T14:27:03.653Z,1.53
2023-05-17T14:29:32.114Z,1.40
2023-05-17T14:31:59.547Z,1.40
2023-05-17T14:34:27.020Z,1.43
2023-05-17T14:36:54.459Z,1.23
2023-05-17T14:39:21.916Z,1.30
2023-05-17T14:41:50.768Z,1.50
2023-05-17T14:44:18.221Z,1.40
2023-05-17T14:46:45.646Z,1.90
2023-05-17T14:49:13.629Z,1.40
2023-05-17T14:51:41.118Z,1.30
2023-05-17T14:54:08.543Z,1.30
2023-05-17T14:56:36.003Z,1.27
2023-05-17T14:59:04.834Z,1.90
2023-05-17T15:01:32.631Z,1.57
2023-05-17T15:04:00.141Z,1.50
2023-05-17T15:06:28.555Z,1.40
2023-05-17T15:08:55.956Z,1.40
2023-05-17T15:11:23.582Z,1.40
2023-05-17T15:13:51.014Z,1.70
2023-05-17T15:16:19.913Z,1.80
2023-05-17T15:18:47.660Z,1.30
2023-05-17T15:21:17.497Z,1.40
2023-05-17T15:23:45.054Z,1.60
2023-05-17T15:26:12.531Z,1.80
2023-05-17T15:28:39.979Z,1.47
2023-05-17T15:31:10.457Z,1.50
2023-05-17T15:33:40.298Z,1.30
2023-05-17T15:36:07.944Z,1.30
2023-05-17T15:38:35.398Z,1.30
2023-05-17T15:41:04.845Z,1.60
2023-05-17T15:43:32.760Z,1.60
2023-05-17T15:46:00.789Z,1.50
2023-05-17T15:48:31.130Z,1.47
2023-05-17T15:51:00.081Z,1.70
2023-05-17T15:53:28.667Z,1.63
2023-05-17T15:55:56.167Z,1.50
2023-05-17T15:58:24.409Z,1.37
2023-05-17T16:00:52.278Z,1.50
2023-05-17T16:03:19.696Z,1.63
2023-05-17T16:05:47.375Z,1.67
2023-05-17T16:08:16.356Z,1.60
2023-05-17T16:10:43.800Z,1.70
2023-05-17T16:13:11.262Z,1.50
2023-05-17T16:15:38.662Z,1.57
2023-05-17T16:18:06.334Z,1.67
2023-05-17T16:20:34.006Z,1.60
2023-05-17T16:23:01.454Z,1.43
2023-05-17T16:25:30.505Z,1.70
2023-05-17T16:27:58.029Z,1.73
2023-05-17T16:30:25.464Z,3.53
2023-05-17T16:32:53.406Z,4.50
2023-05-17T16:35:22.305Z,2.10
2023-05-17T16:37:49.837Z,1.60
2023-05-17T16:40:17.313Z,1.67
2023-05-17T16:42:46.465Z,2.03
2023-05-17T16:45:13.999Z,2.60
2023-05-17T16:47:41.570Z,1.90
2023-05-17T16:50:09.249Z,1.80
2023-05-17T16:52:36.649Z,2.57
2023-05-17T16:55:04.167Z,3.60
2023-05-17T16:57:32.466Z,5.03
2023-05-17T17:00:01.864Z,1.80
2023-05-17T17:02:29.467Z,1.83
2023-05-17T17:04:56.962Z,2.87
2023-05-17T17:07:24.401Z,1.83
2023-05-17T17:09:51.852Z,2.30
2023-05-17T17:12:24.594Z,1.77
2023-05-17T17:14:53.530Z,1.80
2023-05-17T17:17:22.349Z,1.70
2023-05-17T17:19:49.826Z,1.80
2023-05-17T17:22:17.305Z,1.60
2023-05-17T17:24:44.782Z,1.70
2023-05-17T17:27:12.179Z,1.47
2023-05-17T17:29:39.669Z,1.70
2023-05-17T17:32:07.838Z,1.90
2023-05-17T17:34:36.680Z,1.60
2023-05-17T17:37:04.077Z,1.50
2023-05-17T17:39:31.483Z,7.90
2023-05-17T17:41:58.919Z,2.73
2023-05-17T17:44:26.374Z,2.30
2023-05-17T17:46:53.905Z,2.17
2023-05-17T17:49:21.368Z,2.00
2023-05-17T17:51:50.255Z,1.87
2023-05-17T17:54:17.697Z,1.70
2023-05-17T17:56:45.257Z,1.90
2023-05-17T17:59:13.255Z,1.90
2023-05-17T18:01:40.761Z,1.90
2023-05-17T18:04:09.364Z,1.60
2023-05-17T18:06:36.951Z,1.40
2023-05-17T18:09:05.867Z,1.97
2023-05-17T18:11:33.315Z,1.60
2023-05-17T18:14:02.277Z,1.90
2023-05-17T18:16:30.531Z,2.03
2023-05-17T18:18:58.019Z,1.77
2023-05-17T18:21:25.471Z,2.03
2023-05-17T18:23:52.931Z,1.90
2023-05-17T18:26:23.103Z,1.60
2023-05-17T18:28:50.629Z,1.90
2023-05-17T18:31:19.065Z,1.60
2023-05-17T18:33:46.555Z,2.00
2023-05-17T18:36:13.981Z,1.93
2023-05-17T18:38:41.368Z,1.83
2023-05-17T18:41:08.806Z,2.03
2023-05-17T18:43:37.636Z,1.80
2023-05-17T18:46:05.116Z,1.77
2023-05-17T18:48:35.929Z,1.73
2023-05-17T18:51:03.500Z,1.50
2023-05-17T18:53:30.958Z,1.77
2023-05-17T18:56:01.344Z,1.80
2023-05-17T18:58:29.412Z,1.80
2023-05-17T19:00:58.358Z,1.90
2023-05-17T19:03:25.956Z,2.20
2023-05-17T19:05:53.415Z,1.93
2023-05-17T19:08:21.242Z,2.00
2023-05-17T19:10:48.685Z,1.97
2023-05-17T19:13:16.127Z,2.20
2023-05-17T19:15:43.565Z,1.93
2023-05-17T19:18:12.339Z,2.20
2023-05-17T19:20:39.863Z,2.40
2023-05-17T19:23:07.253Z,2.70
2023-05-17T19:25:34.666Z,3.00
2023-05-17T19:28:02.109Z,3.17
2023-05-17T19:30:32.404Z,3.50
2023-05-17T19:33:00.323Z,3.70
2023-05-17T19:35:29.645Z,3.43
2023-05-17T19:37:57.485Z,3.70
2023-05-17T19:40:24.924Z,3.60
2023-05-17T19:42:52.343Z,3.43
2023-05-17T19:45:19.779Z,3.63
2023-05-17T19:47:47.228Z,3.97
2023-05-17T19:50:14.956Z,3.60
2023-05-17T19:52:43.790Z,3.60
2023-05-17T19:55:11.397Z,3.67
2023-05-17T19:57:38.861Z,3.70
2023-05-17T20:00:06.879Z,3.40
2023-05-17T20:02:34.893Z,4.00
2023-05-17T20:05:03.645Z,3.60
2023-05-17T20:07:31.110Z,3.60
2023-05-17T20:09:59.909Z,3.80
2023-05-17T20:12:27.430Z,3.27
2023-05-17T20:14:55.331Z,3.17
2023-05-17T20:17:22.832Z,3.47
2023-05-17T20:19:50.343Z,4.00
2023-05-17T20:22:17.824Z,3.50
2023-05-17T20:24:45.322Z,3.60
2023-05-17T20:27:15.315Z,3.40
2023-05-17T20:29:42.845Z,3.80
2023-05-17T20:32:10.460Z,3.67
2023-05-17T20:34:37.913Z,3.80
2023-05-17T20:37:05.621Z,3.90
2023-05-17T20:39:33.010Z,3.40
2023-05-17T20:42:02.127Z,3.33
2023-05-17T20:44:33.172Z,3.80
2023-05-17T20:47:00.629Z,3.60
2023-05-17T20:49:34.800Z,3.77
2023-05-17T20:52:08.855Z,3.57
2023-05-17T20:54:36.996Z,3.60
2023-05-17T20:57:06.459Z,3.47
2023-05-17T20:59:36.558Z,3.83
2023-05-17T21:02:06.782Z,3.60
2023-05-17T21:04:34.264Z,3.37
2023-05-17T21:07:01.810Z,3.70
2023-05-17T21:09:29.274Z,3.70
2023-05-17T21:11:56.679Z,3.67
2023-05-17T21:14:24.100Z,4.00
2023-05-17T21:16:52.848Z,3.97
2023-05-17T21:19:20.356Z,3.67
2023-05-17T21:21:47.852Z,4.00
2023-05-17T21:24:15.429Z,3.47
2023-05-17T21:26:42.845Z,3.83
2023-05-17T21:29:10.300Z,3.37
2023-05-17T21:31:37.978Z,3.63
2023-05-17T21:34:06.740Z,3.63
2023-05-17T21:36:34.191Z,3.20
2023-05-17T21:39:01.955Z,3.70
2023-05-17T21:41:29.430Z,3.60
2023-05-17T21:43:56.834Z,4.20
2023-05-17T21:46:24.552Z,3.80
2023-05-17T21:48:52.054Z,3.70
2023-05-17T21:51:21.598Z,3.20
2023-05-17T21:53:50.174Z,3.63
2023-05-17T21:56:17.634Z,3.87
2023-05-17T21:58:45.826Z,3.90
2023-05-17T22:01:13.478Z,4.00
2023-05-17T22:03:41.178Z,3.90
2023-05-17T22:06:08.715Z,3.90
2023-05-17T22:08:37.492Z,3.47
2023-05-17T22:11:05.682Z,3.80
2023-05-17T22:13:33.129Z,3.90
2023-05-17T22:16:01.825Z,3.83
2023-05-17T22:18:31.674Z,3.47
2023-05-17T22:20:59.374Z,3.40
2023-05-17T22:23:27.231Z,3.27
2023-05-17T22:25:57.099Z,3.77
2023-05-17T22:28:24.510Z,3.30
2023-05-17T22:30:54.029Z,3.30
2023-05-17T22:33:22.209Z,3.80
2023-05-17T22:35:53.608Z,3.70
2023-05-17T22:38:21.374Z,3.93
2023-05-17T22:40:48.835Z,3.83
2023-05-17T22:43:17.976Z,3.90
2023-05-17T22:45:45.440Z,4.10
2023-05-17T22:48:14.317Z,4.23
2023-05-17T22:50:42.207Z,3.57
2023-05-17T22:53:13.862Z,3.53
2023-05-17T22:55:41.334Z,3.50
2023-05-17T22:58:08.792Z,3.63
2023-05-17T23:00:37.596Z,3.80
2023-05-17T23:03:05.122Z,3.87
2023-05-17T23:05:33.465Z,3.70
2023-05-17T23:08:04.912Z,4.00
2023-05-17T23:10:32.345Z,3.70
2023-05-17T23:12:59.745Z,3.70
2023-05-17T23:15:27.782Z,3.80
2023-05-17T23:17:59.503Z,3.70
2023-05-17T23:20:27.040Z,4.10
2023-05-17T23:22:54.463Z,4.13
2023-05-17T23:25:21.962Z,4.00
2023-05-17T23:27:49.525Z,4.03
2023-05-17T23:30:17.174Z,3.97
2023-05-17T23:32:47.088Z,3.80
2023-05-17T23:35:16.050Z,3.30
2023-05-17T23:37:43.433Z,4.23
2023-05-17T23:40:11.392Z,4.23
2023-05-17T23:42:38.986Z,3.77
2023-05-17T23:45:07.425Z,4.13
2023-05-17T23:47:34.871Z,3.57
2023-05-17T23:50:04.604Z,3.53
2023-05-17T23:52:33.508Z,3.77
2023-05-17T23:55:02.603Z,3.60
2023-05-17T23:57:30.036Z,3.90
2023-05-17T23:59:57.450Z,4.57
